sensor_id;sensor_type;location;lat;lon;timestamp;pressure;altitude;pressure_sealevel;temperature;humidity
10510;BME280;5303;53.266;10.410;2023-05-25T00:01:35;102197.72;;;10.29;81.99
10510;BME280;5303;53.266;10.410;2023-05-25T00:04:01;102191.50;;;10.25;82.08
10510;BME280;5303;53.266;10.410;2023-05-25T00:06:30;102202.09;;;10.28;82.00
10510;BME280;5303;53.266;10.410;2023-05-25T00:08:56;102200.47;;;10.33;81.23
10510;BME280;5303;53.266;10.410;2023-05-25T00:11:22;102194.97;;;10.23;81.73
10510;BME280;5303;53.266;10.410;2023-05-25T00:13:49;102186.97;;;10.21;82.12
10510;BME280;5303;53.266;10.410;2023-05-25T00:16:14;102185.19;;;10.20;82.08
10510;BME280;5303;53.266;10.410;2023-05-25T00:18:40;102190.47;;;10.20;81.88
10510;BME280;5303;53.266;10.410;2023-05-25T00:21:05;102193.09;;;10.20;82.09
10510;BME280;5303;53.266;10.410;2023-05-25T00:23:31;102187.72;;;10.14;82.18
10510;BME280;5303;53.266;10.410;2023-05-25T00:25:57;102197.38;;;10.14;81.83
10510;BME280;5303;53.266;10.410;2023-05-25T00:28:22;102199.16;;;10.15;81.76
10510;BME280;5303;53.266;10.410;2023-05-25T00:30:48;102187.53;;;10.05;81.95
10510;BME280;5303;53.266;10.410;2023-05-25T00:33:14;102192.00;;;10.09;81.87
10510;BME280;5303;53.266;10.410;2023-05-25T00:35:40;102194.56;;;10.04;82.19
10510;BME280;5303;53.266;10.410;2023-05-25T00:38:11;102189.09;;;9.97;82.21
10510;BME280;5303;53.266;10.410;2023-05-25T00:40:38;102203.22;;;9.99;82.06
10510;BME280;5303;53.266;10.410;2023-05-25T00:43:06;102188.97;;;9.91;82.51
10510;BME280;5303;53.266;10.410;2023-05-25T00:45:32;102188.19;;;9.95;82.39
10510;BME280;5303;53.266;10.410;2023-05-25T00:47:57;102188.28;;;9.99;82.02
10510;BME280;5303;53.266;10.410;2023-05-25T00:50:38;102188.16;;;9.93;81.98
10510;BME280;5303;53.266;10.410;2023-05-25T00:53:05;102197.72;;;9.90;82.62
10510;BME280;5303;53.266;10.410;2023-05-25T00:55:35;102197.63;;;9.84;82.31
10510;BME280;5303;53.266;10.410;2023-05-25T00:58:03;102190.53;;;9.81;82.63
10510;BME280;5303;53.266;10.410;2023-05-25T01:00:29;102194.75;;;9.73;82.61
10510;BME280;5303;53.266;10.410;2023-05-25T01:02:55;102198.28;;;9.75;83.08
10510;BME280;5303;53.266;10.410;2023-05-25T01:05:24;102193.81;;;9.71;82.93
10510;BME280;5303;53.266;10.410;2023-05-25T01:07:54;102200.75;;;9.67;83.11
10510;BME280;5303;53.266;10.410;2023-05-25T01:10:21;102199.81;;;9.64;83.57
10510;BME280;5303;53.266;10.410;2023-05-25T01:12:50;102200.63;;;9.61;83.61
10510;BME280;5303;53.266;10.410;2023-05-25T01:15:17;102198.75;;;9.57;83.24
10510;BME280;5303;53.266;10.410;2023-05-25T01:17:44;102203.81;;;9.48;83.78
10510;BME280;5303;53.266;10.410;2023-05-25T01:20:10;102209.91;;;9.45;83.82
10510;BME280;5303;53.266;10.410;2023-05-25T01:25:11;102207.19;;;9.42;84.22
10510;BME280;5303;53.266;10.410;2023-05-25T01:27:42;102206.13;;;9.34;84.28
10510;BME280;5303;53.266;10.410;2023-05-25T01:30:12;102210.44;;;9.31;84.40
10510;BME280;5303;53.266;10.410;2023-05-25T01:32:40;102205.97;;;9.28;84.68
10510;BME280;5303;53.266;10.410;2023-05-25T01:35:07;102210.28;;;9.24;84.43
10510;BME280;5303;53.266;10.410;2023-05-25T01:37:34;102205.81;;;9.22;84.21
10510;BME280;5303;53.266;10.410;2023-05-25T01:40:02;102205.69;;;9.17;84.29
10510;BME280;5303;53.266;10.410;2023-05-25T01:42:29;102208.25;;;9.14;84.51
10510;BME280;5303;53.266;10.410;2023-05-25T01:44:54;102203.00;;;9.14;85.28
10510;BME280;5303;53.266;10.410;2023-05-25T01:47:35;102197.66;;;9.11;84.93
10510;BME280;5303;53.266;10.410;2023-05-25T01:50:07;102205.56;;;9.11;85.10
10510;BME280;5303;53.266;10.410;2023-05-25T01:52:40;102203.72;;;9.09;85.38
10510;BME280;5303;53.266;10.410;2023-05-25T01:55:14;102197.56;;;9.08;84.87
10510;BME280;5303;53.266;10.410;2023-05-25T01:57:44;102197.53;;;9.07;85.03
10510;BME280;5303;53.266;10.410;2023-05-25T02:00:11;102201.06;;;9.07;85.38
10510;BME280;5303;53.266;10.410;2023-05-25T02:02:42;102205.47;;;9.08;85.00
10510;BME280;5303;53.266;10.410;2023-05-25T02:05:08;102203.81;;;9.12;85.94
10510;BME280;5303;53.266;10.410;2023-05-25T02:07:35;102196.81;;;9.12;85.62
10510;BME280;5303;53.266;10.410;2023-05-25T02:10:00;102199.44;;;9.12;84.87
10510;BME280;5303;53.266;10.410;2023-05-25T02:12:25;102206.44;;;9.12;84.98
10510;BME280;5303;53.266;10.410;2023-05-25T02:14:50;102207.34;;;9.12;85.10
10510;BME280;5303;53.266;10.410;2023-05-25T02:17:16;102203.81;;;9.12;85.72
10510;BME280;5303;53.266;10.410;2023-05-25T02:19:44;102206.47;;;9.13;85.42
10510;BME280;5303;53.266;10.410;2023-05-25T02:22:11;102197.72;;;9.14;85.80
10510;BME280;5303;53.266;10.410;2023-05-25T02:24:37;102203.00;;;9.14;85.59
10510;BME280;5303;53.266;10.410;2023-05-25T02:27:03;102200.47;;;9.19;85.71
10510;BME280;5303;53.266;10.410;2023-05-25T02:29:29;102197.03;;;9.21;85.94
10510;BME280;5303;53.266;10.410;2023-05-25T02:31:54;102207.59;;;9.23;85.87
10510;BME280;5303;53.266;10.410;2023-05-25T02:34:20;102205.06;;;9.28;85.94
10510;BME280;5303;53.266;10.410;2023-05-25T02:36:46;102210.44;;;9.31;85.21
10510;BME280;5303;53.266;10.410;2023-05-25T02:39:11;102200.81;;;9.33;85.64
10510;BME280;5303;53.266;10.410;2023-05-25T02:41:37;102204.59;;;9.44;85.30
10510;BME280;5303;53.266;10.410;2023-05-25T02:44:02;102203.72;;;9.43;84.91
10510;BME280;5303;53.266;10.410;2023-05-25T02:46:27;102192.38;;;9.47;85.05
10510;BME280;5303;53.266;10.410;2023-05-25T02:48:53;102200.25;;;9.46;85.30
10510;BME280;5303;53.266;10.410;2023-05-25T02:51:18;102202.91;;;9.47;85.02
10510;BME280;5303;53.266;10.410;2023-05-25T02:53:43;102203.97;;;9.54;85.04
10510;BME280;5303;53.266;10.410;2023-05-25T02:56:08;102205.91;;;9.61;84.95
10510;BME280;5303;53.266;10.410;2023-05-25T02:58:37;102204.06;;;9.59;85.22
10510;BME280;5303;53.266;10.410;2023-05-25T03:01:02;102206.69;;;9.59;85.12
10510;BME280;5303;53.266;10.410;2023-05-25T03:03:29;102206.84;;;9.65;85.29
10510;BME280;5303;53.266;10.410;2023-05-25T03:05:55;102203.34;;;9.66;85.00
10510;BME280;5303;53.266;10.410;2023-05-25T03:08:21;102210.31;;;9.62;85.43
10510;BME280;5303;53.266;10.410;2023-05-25T03:10:46;102205.75;;;9.55;85.46
10510;BME280;5303;53.266;10.410;2023-05-25T03:13:12;102204.84;;;9.55;85.41
10510;BME280;5303;53.266;10.410;2023-05-25T03:15:37;102207.50;;;9.56;85.73
10510;BME280;5303;53.266;10.410;2023-05-25T03:18:04;102202.19;;;9.53;85.46
10510;BME280;5303;53.266;10.410;2023-05-25T03:20:29;102209.97;;;9.48;85.52
10510;BME280;5303;53.266;10.410;2023-05-25T03:22:56;102205.53;;;9.46;85.52
10510;BME280;5303;53.266;10.410;2023-05-25T03:25:22;102217.75;;;9.42;85.70
10510;BME280;5303;53.266;10.410;2023-05-25T03:27:50;102212.44;;;9.41;85.38
10510;BME280;5303;53.266;10.410;2023-05-25T03:30:16;102221.22;;;9.41;85.98
10510;BME280;5303;53.266;10.410;2023-05-25T03:32:42;102214.97;;;9.38;85.53
10510;BME280;5303;53.266;10.410;2023-05-25T03:35:07;102220.34;;;9.41;86.00
10510;BME280;5303;53.266;10.410;2023-05-25T03:37:33;102224.75;;;9.42;86.15
10510;BME280;5303;53.266;10.410;2023-05-25T03:39:58;102223.03;;;9.44;86.34
10510;BME280;5303;53.266;10.410;2023-05-25T03:42:23;102216.91;;;9.45;86.09
10510;BME280;5303;53.266;10.410;2023-05-25T03:44:48;102224.03;;;9.49;85.90
10510;BME280;5303;53.266;10.410;2023-05-25T03:47:14;102221.50;;;9.52;86.03
10510;BME280;5303;53.266;10.410;2023-05-25T03:49:39;102225.03;;;9.54;86.01
10510;BME280;5303;53.266;10.410;2023-05-25T03:52:04;102231.34;;;9.61;86.07
10510;BME280;5303;53.266;10.410;2023-05-25T03:54:30;102235.78;;;9.63;85.86
10510;BME280;5303;53.266;10.410;2023-05-25T03:56:56;102226.28;;;9.70;85.47
10510;BME280;5303;53.266;10.410;2023-05-25T03:59:22;102225.59;;;9.78;84.92
10510;BME280;5303;53.266;10.410;2023-05-25T04:01:49;102221.34;;;9.84;84.16
10510;BME280;5303;53.266;10.410;2023-05-25T04:04:14;102227.47;;;9.82;84.45
10510;BME280;5303;53.266;10.410;2023-05-25T04:06:40;102231.09;;;9.88;83.92
10510;BME280;5303;53.266;10.410;2023-05-25T04:09:06;102244.25;;;9.88;83.97
10510;BME280;5303;53.266;10.410;2023-05-25T04:11:31;102241.88;;;10.00;83.79
10510;BME280;5303;53.266;10.410;2023-05-25T04:13:57;102245.53;;;10.05;83.43
10510;BME280;5303;53.266;10.410;2023-05-25T04:16:23;102247.16;;;10.00;83.02
10510;BME280;5303;53.266;10.410;2023-05-25T04:18:50;102252.44;;;10.00;83.24
10510;BME280;5303;53.266;10.410;2023-05-25T04:21:15;102255.81;;;9.93;83.07
10510;BME280;5303;53.266;10.410;2023-05-25T04:23:40;102249.69;;;9.94;84.07
10510;BME280;5303;53.266;10.410;2023-05-25T04:26:07;102250.56;;;9.94;83.20
10510;BME280;5303;53.266;10.410;2023-05-25T04:28:34;102252.44;;;10.00;83.73
10510;BME280;5303;53.266;10.410;2023-05-25T04:30:59;102252.41;;;9.98;82.81
10510;BME280;5303;53.266;10.410;2023-05-25T04:33:25;102249.88;;;10.03;83.07
10510;BME280;5303;53.266;10.410;2023-05-25T04:35:54;102254.19;;;9.99;83.51
10510;BME280;5303;53.266;10.410;2023-05-25T04:38:19;102248.88;;;9.98;83.77
10510;BME280;5303;53.266;10.410;2023-05-25T04:40:44;102257.50;;;9.91;84.06
10510;BME280;5303;53.266;10.410;2023-05-25T04:43:13;102264.75;;;10.01;83.38
10510;BME280;5303;53.266;10.410;2023-05-25T04:45:42;102275.03;;;9.89;84.22
10510;BME280;5303;53.266;10.410;2023-05-25T04:48:09;102275.25;;;9.98;83.60
10510;BME280;5303;53.266;10.410;2023-05-25T04:50:35;102266.41;;;9.96;83.58
10510;BME280;5303;53.266;10.410;2023-05-25T04:53:01;102266.44;;;9.97;83.60
10510;BME280;5303;53.266;10.410;2023-05-25T04:55:26;102264.63;;;9.95;84.31
10510;BME280;5303;53.266;10.410;2023-05-25T04:57:52;102276.03;;;9.94;84.39
10510;BME280;5303;53.266;10.410;2023-05-25T05:00:19;102270.03;;;10.01;84.01
10510;BME280;5303;53.266;10.410;2023-05-25T05:02:44;102269.16;;;10.00;84.46
10510;BME280;5303;53.266;10.410;2023-05-25T05:05:10;102273.84;;;10.14;83.75
10510;BME280;5303;53.266;10.410;2023-05-25T05:07:35;102284.28;;;10.09;83.36
10510;BME280;5303;53.266;10.410;2023-05-25T05:10:02;102282.72;;;10.17;83.04
10510;BME280;5303;53.266;10.410;2023-05-25T05:12:27;102294.94;;;10.14;82.64
10510;BME280;5303;53.266;10.410;2023-05-25T05:14:52;102287.94;;;10.14;82.69
10510;BME280;5303;53.266;10.410;2023-05-25T05:17:18;102301.81;;;10.07;83.05
10510;BME280;5303;53.266;10.410;2023-05-25T05:19:43;102301.97;;;10.13;83.21
10510;BME280;5303;53.266;10.410;2023-05-25T05:22:08;102301.81;;;10.07;83.03
10510;BME280;5303;53.266;10.410;2023-05-25T05:24:34;102300.91;;;10.05;83.18
10510;BME280;5303;53.266;10.410;2023-05-25T05:26:59;102298.25;;;10.05;82.85
10510;BME280;5303;53.266;10.410;2023-05-25T05:29:25;102306.25;;;10.08;83.17
10510;BME280;5303;53.266;10.410;2023-05-25T05:31:53;102302.03;;;10.16;82.84
10510;BME280;5303;53.266;10.410;2023-05-25T05:34:18;102311.50;;;10.08;83.01
10510;BME280;5303;53.266;10.410;2023-05-25T05:36:44;102306.41;;;10.16;82.75
10510;BME280;5303;53.266;10.410;2023-05-25T05:39:09;102301.41;;;10.26;81.82
10510;BME280;5303;53.266;10.410;2023-05-25T05:41:34;102309.25;;;10.22;82.05
10510;BME280;5303;53.266;10.410;2023-05-25T05:44:00;102303.97;;;10.22;81.82
10510;BME280;5303;53.266;10.410;2023-05-25T05:46:25;102304.00;;;10.23;81.56
10510;BME280;5303;53.266;10.410;2023-05-25T05:48:51;102304.91;;;10.25;81.79
10510;BME280;5303;53.266;10.410;2023-05-25T05:51:16;102316.44;;;10.30;80.79
10510;BME280;5303;53.266;10.410;2023-05-25T05:53:41;102326.47;;;10.09;81.76
10510;BME280;5303;53.266;10.410;2023-05-25T05:56:15;102324.06;;;10.18;81.20
10510;BME280;5303;53.266;10.410;2023-05-25T05:58:41;102328.31;;;10.12;81.43
10510;BME280;5303;53.266;10.410;2023-05-25T06:01:06;102328.13;;;10.04;81.94
10510;BME280;5303;53.266;10.410;2023-05-25T06:03:33;102327.53;;;10.17;81.39
10510;BME280;5303;53.266;10.410;2023-05-25T06:05:58;102328.47;;;10.19;80.91
10510;BME280;5303;53.266;10.410;2023-05-25T06:08:23;102335.50;;;10.20;80.76
10510;BME280;5303;53.266;10.410;2023-05-25T06:10:49;102335.41;;;10.14;80.39
10510;BME280;5303;53.266;10.410;2023-05-25T06:13:14;102340.56;;;10.11;80.07
10510;BME280;5303;53.266;10.410;2023-05-25T06:15:40;102338.78;;;10.10;80.92
10510;BME280;5303;53.266;10.410;2023-05-25T06:18:05;102331.75;;;10.09;80.42
10510;BME280;5303;53.266;10.410;2023-05-25T06:20:31;102338.75;;;10.07;80.78
10510;BME280;5303;53.266;10.410;2023-05-25T06:22:56;102336.13;;;10.08;81.50
10510;BME280;5303;53.266;10.410;2023-05-25T06:25:22;102336.38;;;10.19;80.63
10510;BME280;5303;53.266;10.410;2023-05-25T06:27:47;102344.47;;;10.25;80.49
10510;BME280;5303;53.266;10.410;2023-05-25T06:30:13;102341.22;;;10.37;80.24
10510;BME280;5303;53.266;10.410;2023-05-25T06:32:38;102346.66;;;10.45;80.15
10510;BME280;5303;53.266;10.410;2023-05-25T06:35:04;102350.38;;;10.53;78.73
10510;BME280;5303;53.266;10.410;2023-05-25T06:37:30;102355.69;;;10.54;78.63
10510;BME280;5303;53.266;10.410;2023-05-25T06:40:02;102359.13;;;10.52;78.89
10510;BME280;5303;53.266;10.410;2023-05-25T06:42:27;102361.84;;;10.55;79.05
10510;BME280;5303;53.266;10.410;2023-05-25T06:44:52;102359.25;;;10.58;78.88
10510;BME280;5303;53.266;10.410;2023-05-25T06:47:18;102361.25;;;10.68;77.99
10510;BME280;5303;53.266;10.410;2023-05-25T06:49:43;102360.28;;;10.63;77.53
10510;BME280;5303;53.266;10.410;2023-05-25T06:52:08;102363.16;;;10.75;76.61
10510;BME280;5303;53.266;10.410;2023-05-25T06:54:33;102356.88;;;10.70;76.08
10510;BME280;5303;53.266;10.410;2023-05-25T06:56:59;102357.94;;;10.78;76.42
10510;BME280;5303;53.266;10.410;2023-05-25T06:59:25;102365.91;;;10.81;76.84
10510;BME280;5303;53.266;10.410;2023-05-25T07:01:50;102363.56;;;10.93;76.43
10510;BME280;5303;53.266;10.410;2023-05-25T07:04:15;102357.66;;;11.07;74.70
10510;BME280;5303;53.266;10.410;2023-05-25T07:06:41;102354.19;;;11.11;74.24
10510;BME280;5303;53.266;10.410;2023-05-25T07:09:06;102360.88;;;11.37;73.37
10510;BME280;5303;53.266;10.410;2023-05-25T07:11:32;102354.25;;;11.62;73.08
10510;BME280;5303;53.266;10.410;2023-05-25T07:13:57;102349.28;;;11.79;72.29
10510;BME280;5303;53.266;10.410;2023-05-25T07:16:22;102358.41;;;11.96;71.72
10510;BME280;5303;53.266;10.410;2023-05-25T07:18:49;102366.53;;;12.10;70.59
10510;BME280;5303;53.266;10.410;2023-05-25T07:21:14;102355.88;;;12.05;70.75
10510;BME280;5303;53.266;10.410;2023-05-25T07:23:39;102365.94;;;12.26;70.89
10510;BME280;5303;53.266;10.410;2023-05-25T07:26:05;102355.44;;;12.34;70.32
10510;BME280;5303;53.266;10.410;2023-05-25T07:28:30;102361.59;;;12.33;69.80
10510;BME280;5303;53.266;10.410;2023-05-25T07:30:56;102364.28;;;12.36;69.99
10510;BME280;5303;53.266;10.410;2023-05-25T07:33:21;102367.75;;;12.32;69.37
10510;BME280;5303;53.266;10.410;2023-05-25T07:35:46;102361.75;;;12.44;69.46
10510;BME280;5303;53.266;10.410;2023-05-25T07:38:11;102364.50;;;12.51;68.61
10510;BME280;5303;53.266;10.410;2023-05-25T07:40:37;102362.50;;;12.35;68.79
10510;BME280;5303;53.266;10.410;2023-05-25T07:43:02;102376.56;;;12.31;68.68
10510;BME280;5303;53.266;10.410;2023-05-25T07:45:27;102370.25;;;12.21;68.56
10510;BME280;5303;53.266;10.410;2023-05-25T07:47:52;102370.22;;;12.18;68.86
10510;BME280;5303;53.266;10.410;2023-05-25T07:50:18;102366.59;;;12.13;69.35
10510;BME280;5303;53.266;10.410;2023-05-25T07:52:44;102372.75;;;12.14;69.66
10510;BME280;5303;53.266;10.410;2023-05-25T07:55:10;102367.59;;;12.20;69.63
10510;BME280;5303;53.266;10.410;2023-05-25T07:57:35;102372.19;;;12.33;69.96
10510;BME280;5303;53.266;10.410;2023-05-25T08:00:01;102373.31;;;12.50;69.00
10510;BME280;5303;53.266;10.410;2023-05-25T08:02:26;102360.34;;;12.68;69.01
10510;BME280;5303;53.266;10.410;2023-05-25T08:04:52;102375.63;;;12.91;66.74
10510;BME280;5303;53.266;10.410;2023-05-25T08:07:18;102377.31;;;12.86;66.68
10510;BME280;5303;53.266;10.410;2023-05-25T08:09:43;102368.56;;;12.93;66.87
10510;BME280;5303;53.266;10.410;2023-05-25T08:12:08;102368.59;;;12.96;66.62
10510;BME280;5303;53.266;10.410;2023-05-25T08:14:34;102370.44;;;13.00;65.45
10510;BME280;5303;53.266;10.410;2023-05-25T08:16:59;102372.97;;;12.91;65.09
10510;BME280;5303;53.266;10.410;2023-05-25T08:19:25;102373.91;;;12.96;64.09
10510;BME280;5303;53.266;10.410;2023-05-25T08:21:50;102362.63;;;13.14;65.13
10510;BME280;5303;53.266;10.410;2023-05-25T08:24:16;102373.50;;;13.35;65.10
10510;BME280;5303;53.266;10.410;2023-05-25T08:26:41;102373.59;;;13.44;64.37
10510;BME280;5303;53.266;10.410;2023-05-25T08:29:07;102378.13;;;13.53;64.10
10510;BME280;5303;53.266;10.410;2023-05-25T08:31:33;102378.22;;;13.67;64.24
10510;BME280;5303;53.266;10.410;2023-05-25T08:33:59;102381.78;;;13.67;63.77
10510;BME280;5303;53.266;10.410;2023-05-25T08:36:25;102379.97;;;13.63;63.99
10510;BME280;5303;53.266;10.410;2023-05-25T08:38:51;102380.84;;;13.59;63.49
10510;BME280;5303;53.266;10.410;2023-05-25T08:41:18;102379.03;;;13.57;63.08
10510;BME280;5303;53.266;10.410;2023-05-25T08:43:44;102379.81;;;13.48;63.56
10510;BME280;5303;53.266;10.410;2023-05-25T08:46:09;102372.63;;;13.38;63.17
10510;BME280;5303;53.266;10.410;2023-05-25T08:48:36;102383.41;;;13.53;63.36
10510;BME280;5303;53.266;10.410;2023-05-25T08:51:09;102385.38;;;13.72;62.45
10510;BME280;5303;53.266;10.410;2023-05-25T08:53:37;102380.16;;;13.81;62.27
10510;BME280;5303;53.266;10.410;2023-05-25T08:56:25;102386.50;;;14.00;62.46
10510;BME280;5303;53.266;10.410;2023-05-25T08:59:01;102392.81;;;14.16;61.67
10510;BME280;5303;53.266;10.410;2023-05-25T09:01:32;102394.50;;;14.08;62.18
10510;BME280;5303;53.266;10.410;2023-05-25T09:04:03;102390.97;;;14.09;62.46
10510;BME280;5303;53.266;10.410;2023-05-25T09:06:28;102391.97;;;14.22;62.24
10510;BME280;5303;53.266;10.410;2023-05-25T09:08:54;102397.34;;;14.31;60.63
10510;BME280;5303;53.266;10.410;2023-05-25T09:11:20;102394.69;;;14.32;60.89
10510;BME280;5303;53.266;10.410;2023-05-25T09:13:46;102399.13;;;14.30;59.71
10510;BME280;5303;53.266;10.410;2023-05-25T09:16:12;102389.44;;;14.41;59.37
10510;BME280;5303;53.266;10.410;2023-05-25T09:18:37;102387.75;;;14.48;59.93
10510;BME280;5303;53.266;10.410;2023-05-25T09:21:02;102384.25;;;14.57;60.26
10510;BME280;5303;53.266;10.410;2023-05-25T09:23:29;102383.38;;;14.58;59.81
10510;BME280;5303;53.266;10.410;2023-05-25T09:25:55;102391.38;;;14.64;58.75
10510;BME280;5303;53.266;10.410;2023-05-25T09:28:21;102382.47;;;14.59;59.18
10510;BME280;5303;53.266;10.410;2023-05-25T09:30:46;102387.78;;;14.53;59.09
10510;BME280;5303;53.266;10.410;2023-05-25T09:33:12;102391.44;;;14.73;57.88
10510;BME280;5303;53.266;10.410;2023-05-25T09:35:38;102387.84;;;14.71;58.77
10510;BME280;5303;53.266;10.410;2023-05-25T09:38:05;102394.16;;;14.85;58.41
10510;BME280;5303;53.266;10.410;2023-05-25T09:40:32;102396.84;;;14.96;58.12
10510;BME280;5303;53.266;10.410;2023-05-25T09:42:58;102394.22;;;15.02;57.49
10510;BME280;5303;53.266;10.410;2023-05-25T09:45:23;102395.97;;;14.97;56.22
10510;BME280;5303;53.266;10.410;2023-05-25T09:47:53;102388.91;;;15.02;56.47
10510;BME280;5303;53.266;10.410;2023-05-25T09:50:19;102377.41;;;15.05;56.64
10510;BME280;5303;53.266;10.410;2023-05-25T09:52:45;102382.78;;;15.26;57.23
10510;BME280;5303;53.266;10.410;2023-05-25T09:55:11;102383.66;;;15.28;56.15
10510;BME280;5303;53.266;10.410;2023-05-25T09:57:36;102386.31;;;15.30;55.08
10510;BME280;5303;53.266;10.410;2023-05-25T10:00:02;102385.41;;;15.17;55.33
10510;BME280;5303;53.266;10.410;2023-05-25T10:02:29;102383.63;;;15.22;55.95
10510;BME280;5303;53.266;10.410;2023-05-25T10:04:55;102396.09;;;15.40;55.00
10510;BME280;5303;53.266;10.410;2023-05-25T10:07:21;102398.72;;;15.32;54.91
10510;BME280;5303;53.266;10.410;2023-05-25T10:09:49;102393.41;;;15.26;55.90
10510;BME280;5303;53.266;10.410;2023-05-25T10:12:18;102399.66;;;15.34;55.88
10510;BME280;5303;53.266;10.410;2023-05-25T10:14:45;102404.09;;;15.47;54.40
10510;BME280;5303;53.266;10.410;2023-05-25T10:17:10;102403.22;;;15.51;53.22
10510;BME280;5303;53.266;10.410;2023-05-25T10:19:45;102411.25;;;15.62;53.23
10510;BME280;5303;53.266;10.410;2023-05-25T10:22:24;102405.91;;;15.53;53.64
10510;BME280;5303;53.266;10.410;2023-05-25T10:24:56;102415.63;;;15.46;52.71
10510;BME280;5303;53.266;10.410;2023-05-25T10:27:28;102408.53;;;15.44;51.75
10510;BME280;5303;53.266;10.410;2023-05-25T10:29:58;102415.63;;;15.49;50.62
10510;BME280;5303;53.266;10.410;2023-05-25T10:32:26;102416.50;;;15.51;50.67
10510;BME280;5303;53.266;10.410;2023-05-25T10:34:52;102417.38;;;15.38;50.70
10510;BME280;5303;53.266;10.410;2023-05-25T10:37:17;102406.69;;;15.27;50.92
10510;BME280;5303;53.266;10.410;2023-05-25T10:39:43;102405.84;;;15.33;52.03
10510;BME280;5303;53.266;10.410;2023-05-25T10:42:10;102412.06;;;15.49;52.08
10510;BME280;5303;53.266;10.410;2023-05-25T10:44:37;102413.00;;;15.62;51.49
10510;BME280;5303;53.266;10.410;2023-05-25T10:47:04;102405.88;;;15.57;51.19
10510;BME280;5303;53.266;10.410;2023-05-25T10:49:33;102407.72;;;15.66;50.91
10510;BME280;5303;53.266;10.410;2023-05-25T10:52:16;102412.19;;;15.84;51.86
10510;BME280;5303;53.266;10.410;2023-05-25T10:54:42;102402.41;;;15.75;49.37
10510;BME280;5303;53.266;10.410;2023-05-25T10:57:11;102413.03;;;15.71;50.25
10510;BME280;5303;53.266;10.410;2023-05-25T10:59:41;102399.75;;;15.89;49.96
10510;BME280;5303;53.266;10.410;2023-05-25T11:02:09;102392.66;;;15.94;48.62
10510;BME280;5303;53.266;10.410;2023-05-25T11:04:34;102394.41;;;15.94;48.18
10510;BME280;5303;53.266;10.410;2023-05-25T11:09:28;102400.63;;;15.91;46.96
10510;BME280;5303;53.266;10.410;2023-05-25T11:14:27;102389.09;;;16.07;49.24
10510;BME280;5303;53.266;10.410;2023-05-25T11:17:17;102392.63;;;16.20;47.98
10510;BME280;5303;53.266;10.410;2023-05-25T11:19:51;102395.31;;;16.28;45.66
10510;BME280;5303;53.266;10.410;2023-05-25T11:22:32;102392.66;;;16.26;46.80
10510;BME280;5303;53.266;10.410;2023-05-25T11:25:03;102393.50;;;16.22;47.79
10510;BME280;5303;53.266;10.410;2023-05-25T11:27:47;102389.09;;;16.20;47.70
10510;BME280;5303;53.266;10.410;2023-05-25T11:30:16;102391.78;;;16.15;47.79
10510;BME280;5303;53.266;10.410;2023-05-25T11:32:47;102404.19;;;16.27;47.51
10510;BME280;5303;53.266;10.410;2023-05-25T11:35:14;102391.75;;;16.26;47.95
10510;BME280;5303;53.266;10.410;2023-05-25T11:37:41;102390.84;;;16.31;48.27
10510;BME280;5303;53.266;10.410;2023-05-25T11:40:13;102397.03;;;16.41;47.11
10510;BME280;5303;53.266;10.410;2023-05-25T11:42:40;102391.75;;;16.29;44.77
10510;BME280;5303;53.266;10.410;2023-05-25T11:45:10;102392.63;;;16.32;44.01
10510;BME280;5303;53.266;10.410;2023-05-25T11:47:35;102382.84;;;16.37;45.63
10510;BME280;5303;53.266;10.410;2023-05-25T11:50:00;102389.97;;;16.37;47.04
10510;BME280;5303;53.266;10.410;2023-05-25T11:52:26;102381.06;;;16.47;47.39
10510;BME280;5303;53.266;10.410;2023-05-25T11:54:51;102383.72;;;16.46;45.88
10510;BME280;5303;53.266;10.410;2023-05-25T11:57:22;102383.69;;;16.53;46.67
10510;BME280;5303;53.266;10.410;2023-05-25T11:59:53;102384.59;;;16.52;45.17
10510;BME280;5303;53.266;10.410;2023-05-25T12:02:20;102376.59;;;16.58;46.46
10510;BME280;5303;53.266;10.410;2023-05-25T12:04:53;102373.03;;;16.55;46.35
10510;BME280;5303;53.266;10.410;2023-05-25T12:07:19;102378.41;;;16.47;46.99
10510;BME280;5303;53.266;10.410;2023-05-25T12:09:44;102370.38;;;16.58;47.24
10510;BME280;5303;53.266;10.410;2023-05-25T12:12:10;102368.56;;;16.77;46.03
10510;BME280;5303;53.266;10.410;2023-05-25T12:14:45;102380.13;;;16.77;45.32
10510;BME280;5303;53.266;10.410;2023-05-25T12:17:11;102360.56;;;16.77;45.15
10510;BME280;5303;53.266;10.410;2023-05-25T12:19:37;102361.41;;;16.85;45.83
10510;BME280;5303;53.266;10.410;2023-05-25T12:22:02;102362.25;;;16.96;46.00
10510;BME280;5303;53.266;10.410;2023-05-25T12:24:28;102367.50;;;17.14;45.45
10510;BME280;5303;53.266;10.410;2023-05-25T12:26:53;102369.19;;;17.26;46.04
10510;BME280;5303;53.266;10.410;2023-05-25T12:29:21;102362.88;;;17.44;44.16
10510;BME280;5303;53.266;10.410;2023-05-25T12:31:47;102359.28;;;17.51;45.15
10510;BME280;5303;53.266;10.410;2023-05-25T12:34:14;102354.69;;;17.67;45.44
10510;BME280;5303;53.266;10.410;2023-05-25T12:39:08;102369.78;;;17.75;45.21
10510;BME280;5303;53.266;10.410;2023-05-25T12:42:02;102361.81;;;17.65;45.57
10510;BME280;5303;53.266;10.410;2023-05-25T12:46:56;102362.78;;;17.59;45.99
10510;BME280;5303;53.266;10.410;2023-05-25T12:49:33;102371.63;;;17.64;44.89
10510;BME280;5303;53.266;10.410;2023-05-25T12:52:01;102366.22;;;17.75;44.99
10510;BME280;5303;53.266;10.410;2023-05-25T12:54:38;102366.19;;;17.82;44.09
10510;BME280;5303;53.266;10.410;2023-05-25T12:57:14;102368.19;;;17.50;45.15
10510;BME280;5303;53.266;10.410;2023-05-25T12:59:42;102364.63;;;17.48;44.45
10510;BME280;5303;53.266;10.410;2023-05-25T13:02:08;102364.69;;;17.36;46.08
10510;BME280;5303;53.266;10.410;2023-05-25T13:04:34;102356.63;;;17.45;45.72